createdAt,value
2023-02-23T00:01:37.286Z,26.40
2023-02-23T00:04:04.892Z,26.20
2023-02-23T00:06:33.645Z,25.73
2023-02-23T00:09:01.284Z,26.25
2023-02-23T00:11:28.348Z,26.75
2023-02-23T00:13:56.929Z,27.67
2023-02-23T00:16:26.053Z,26.50
2023-02-23T00:19:00.329Z,26.92
2023-02-23T00:21:30.440Z,26.33
2023-02-23T00:23:59.772Z,26.52
2023-02-23T00:26:35.155Z,26.20
2023-02-23T00:29:17.750Z,27.20
2023-02-23T00:31:48.734Z,27.58
2023-02-23T00:34:21.387Z,26.20
2023-02-23T00:36:54.250Z,25.67
2023-02-23T00:39:22.462Z,27.88
2023-02-23T00:41:50.050Z,28.92
2023-02-23T00:44:16.944Z,25.55
2023-02-23T00:46:45.262Z,26.85
2023-02-23T00:49:13.402Z,25.27
2023-02-23T00:51:40.006Z,27.23
2023-02-23T00:54:07.513Z,26.50
2023-02-23T00:56:34.491Z,24.50
2023-02-23T00:59:01.179Z,26.00
2023-02-23T01:01:28.013Z,28.13
2023-02-23T01:03:54.555Z,27.25
2023-02-23T01:06:21.462Z,27.45
2023-02-23T01:08:50.597Z,27.48
2023-02-23T01:11:23.401Z,26.80
2023-02-23T01:13:53.180Z,27.05
2023-02-23T01:16:22.231Z,26.70
2023-02-23T01:18:49.361Z,26.75
2023-02-23T01:21:19.452Z,28.83
2023-02-23T01:23:46.441Z,27.17
2023-02-23T01:26:22.122Z,26.83
2023-02-23T01:28:50.062Z,27.70
2023-02-23T01:31:17.346Z,28.75
2023-02-23T01:33:44.184Z,27.35
2023-02-23T01:36:10.673Z,28.50
2023-02-23T01:38:37.320Z,28.38
2023-02-23T01:41:04.072Z,27.55
2023-02-23T01:43:30.618Z,27.80
2023-02-23T01:45:58.147Z,26.58
2023-02-23T01:48:34.213Z,28.23
2023-02-23T01:51:29.117Z,27.15
2023-02-23T01:54:09.771Z,29.52
2023-02-23T01:56:43.398Z,28.65
2023-02-23T01:59:12.315Z,29.35
2023-02-23T02:01:41.928Z,31.05
2023-02-23T02:04:16.618Z,30.75
2023-02-23T02:06:45.810Z,29.25
2023-02-23T02:09:19.472Z,31.00
2023-02-23T02:11:53.945Z,32.15
2023-02-23T02:14:29.405Z,32.30
2023-02-23T02:17:11.177Z,32.95
2023-02-23T02:20:14.195Z,33.10
2023-02-23T02:25:53.343Z,32.50
2023-02-23T02:28:30.737Z,34.47
2023-02-23T02:31:16.148Z,34.95
2023-02-23T02:34:01.424Z,36.22
2023-02-23T02:36:43.181Z,38.05
2023-02-23T02:39:37.934Z,36.13
2023-02-23T02:42:21.560Z,34.92
2023-02-23T02:44:54.437Z,35.63
2023-02-23T02:47:45.290Z,37.60
2023-02-23T02:50:21.936Z,35.92
2023-02-23T02:53:00.307Z,35.95
2023-02-23T02:55:34.281Z,39.40
2023-02-23T02:58:03.155Z,37.65
2023-02-23T03:00:55.170Z,38.38
2023-02-23T03:04:00.996Z,40.95
2023-02-23T03:06:57.469Z,42.08
2023-02-23T03:10:02.798Z,40.45
2023-02-23T03:13:06.590Z,42.58
2023-02-23T03:16:26.935Z,43.03
2023-02-23T03:19:31.016Z,40.92
2023-02-23T03:22:42.272Z,41.75
2023-02-23T03:25:37.189Z,41.72
2023-02-23T03:28:32.977Z,43.72
2023-02-23T03:31:34.989Z,43.08
2023-02-23T03:34:36.024Z,44.07
2023-02-23T03:37:36.512Z,42.60
2023-02-23T03:40:27.884Z,42.75
2023-02-23T03:43:15.662Z,44.85
2023-02-23T03:46:04.797Z,44.70
2023-02-23T03:48:51.653Z,43.97
2023-02-23T03:51:38.821Z,43.83
2023-02-23T03:54:33.880Z,44.67
2023-02-23T03:57:22.521Z,46.63
2023-02-23T04:00:13.380Z,44.13
2023-02-23T04:03:01.526Z,45.15
2023-02-23T04:05:48.614Z,45.80
2023-02-23T04:08:38.271Z,48.35
2023-02-23T04:11:38.301Z,47.47
2023-02-23T04:14:10.139Z,45.33
2023-02-23T04:16:39.425Z,48.13
2023-02-23T04:19:06.232Z,48.83
2023-02-23T04:21:32.925Z,49.38
2023-02-23T04:23:59.719Z,47.22
2023-02-23T04:26:26.175Z,50.17
2023-02-23T04:28:52.760Z,49.53
2023-02-23T04:31:20.647Z,51.22
2023-02-23T04:33:48.165Z,52.90
2023-02-23T04:36:14.791Z,53.85
2023-02-23T04:38:41.288Z,52.75
2023-02-23T04:41:07.784Z,53.35
2023-02-23T04:43:34.316Z,51.47
2023-02-23T04:46:01.474Z,54.08
2023-02-23T04:48:28.088Z,53.17
2023-02-23T04:50:54.819Z,52.47
2023-02-23T04:53:21.293Z,52.40
2023-02-23T04:55:47.730Z,51.17
2023-02-23T04:58:14.628Z,53.05
2023-02-23T05:00:41.960Z,51.17
2023-02-23T05:03:08.806Z,51.58
2023-02-23T05:05:35.314Z,50.08
2023-02-23T05:08:01.866Z,49.63
2023-02-23T05:10:28.926Z,51.15
2023-02-23T05:12:55.999Z,48.05
2023-02-23T05:15:22.541Z,49.38
2023-02-23T05:17:49.627Z,52.25
2023-02-23T05:20:16.323Z,49.38
2023-02-23T05:22:42.805Z,50.75
2023-02-23T05:25:10.121Z,50.38
2023-02-23T05:27:36.880Z,53.00
2023-02-23T05:30:04.714Z,51.83
2023-02-23T05:32:31.258Z,51.65
2023-02-23T05:34:57.779Z,50.05
2023-02-23T05:37:24.248Z,50.58
2023-02-23T05:39:50.837Z,49.38
2023-02-23T05:42:17.709Z,49.97
2023-02-23T05:44:44.516Z,47.88
2023-02-23T05:47:11.023Z,51.00
2023-02-23T05:49:38.399Z,50.38
2023-02-23T05:52:05.229Z,50.00
2023-02-23T05:54:31.749Z,47.63
2023-02-23T05:57:00.319Z,43.05
2023-02-23T05:59:28.089Z,46.60
2023-02-23T06:01:54.555Z,47.90
2023-02-23T06:04:22.461Z,46.75
2023-02-23T06:06:49.006Z,50.35
2023-02-23T06:09:15.575Z,50.70
2023-02-23T06:11:42.093Z,48.33
2023-02-23T06:14:08.631Z,49.88
2023-02-23T06:16:35.458Z,48.20
2023-02-23T06:19:02.212Z,47.40
2023-02-23T06:21:28.681Z,50.38
2023-02-23T06:23:55.418Z,51.40
2023-02-23T06:26:22.018Z,52.63
2023-02-23T06:28:48.626Z,51.97
2023-02-23T06:31:15.303Z,52.42
2023-02-23T06:33:41.935Z,54.63
2023-02-23T06:36:08.455Z,53.58
2023-02-23T06:38:35.154Z,51.78
2023-02-23T06:41:09.975Z,54.30
2023-02-23T06:43:36.584Z,55.40
2023-02-23T06:46:04.135Z,57.50
2023-02-23T06:48:30.677Z,57.13
2023-02-23T06:51:00.551Z,57.00
2023-02-23T06:53:27.550Z,55.08
2023-02-23T06:55:54.146Z,56.60
2023-02-23T06:58:20.827Z,56.28
2023-02-23T07:00:47.347Z,56.58
2023-02-23T07:03:13.971Z,57.25
2023-02-23T07:05:40.982Z,57.97
2023-02-23T07:08:08.062Z,56.08
2023-02-23T07:10:35.092Z,54.05
2023-02-23T07:13:01.837Z,50.30
2023-02-23T07:15:28.949Z,52.78
2023-02-23T07:17:55.523Z,54.30
2023-02-23T07:20:22.439Z,54.38
2023-02-23T07:22:49.076Z,56.00
2023-02-23T07:25:15.714Z,54.88
2023-02-23T07:27:42.322Z,54.03
2023-02-23T07:30:09.701Z,52.38
2023-02-23T07:32:36.360Z,53.92
2023-02-23T07:35:04.282Z,50.03
2023-02-23T07:37:30.823Z,50.88
2023-02-23T07:39:59.049Z,49.97
2023-02-23T07:42:26.893Z,49.75
2023-02-23T07:44:53.465Z,45.35
2023-02-23T07:47:19.987Z,49.08
2023-02-23T07:49:46.526Z,55.83
2023-02-23T07:52:17.038Z,65.35
2023-02-23T07:54:43.817Z,49.80
2023-02-23T07:57:11.255Z,45.50
2023-02-23T07:59:39.114Z,45.33
2023-02-23T08:02:05.847Z,43.30
2023-02-23T08:04:32.416Z,45.03
2023-02-23T08:06:59.482Z,46.55
2023-02-23T08:09:25.975Z,49.90
2023-02-23T08:11:52.482Z,42.58
2023-02-23T08:14:21.925Z,46.88
2023-02-23T08:16:50.559Z,45.10
2023-02-23T08:19:18.067Z,45.25
2023-02-23T08:21:45.207Z,45.28
2023-02-23T08:24:11.797Z,43.38
2023-02-23T08:26:38.912Z,41.47
2023-02-23T08:29:05.643Z,43.38
2023-02-23T08:31:32.687Z,43.38
2023-02-23T08:33:59.982Z,45.58
2023-02-23T08:36:26.551Z,45.75
2023-02-23T08:38:56.377Z,42.40
2023-02-23T08:41:23.026Z,45.00
2023-02-23T08:43:49.853Z,40.83
2023-02-23T08:46:18.692Z,42.72
2023-02-23T08:48:46.665Z,39.13
2023-02-23T08:51:14.669Z,39.92
2023-02-23T08:53:41.346Z,41.50
2023-02-23T08:56:08.609Z,43.42
2023-02-23T08:58:36.553Z,50.42
2023-02-23T09:01:04.368Z,45.10
2023-02-23T09:03:31.363Z,43.30
2023-02-23T09:06:04.548Z,44.15
2023-02-23T09:08:31.187Z,39.22
2023-02-23T09:10:57.722Z,40.05
2023-02-23T09:13:24.277Z,39.17
2023-02-23T09:15:50.864Z,38.55
2023-02-23T09:18:18.334Z,39.10
2023-02-23T09:20:45.389Z,37.40
2023-02-23T09:23:13.039Z,42.88
2023-02-23T09:25:43.911Z,37.47
2023-02-23T09:28:19.097Z,38.00
2023-02-23T09:30:46.872Z,39.58
2023-02-23T09:33:14.279Z,38.08
2023-02-23T09:35:41.356Z,37.00
2023-02-23T09:38:08.501Z,36.70
2023-02-23T09:40:49.716Z,37.45
2023-02-23T09:43:17.613Z,38.42
2023-02-23T09:46:27.161Z,40.28
2023-02-23T09:48:56.787Z,38.70
2023-02-23T09:51:24.102Z,39.00
2023-02-23T09:53:56.884Z,36.05
2023-02-23T09:56:40.834Z,35.95
2023-02-23T09:59:13.771Z,37.30
2023-02-23T10:01:49.309Z,34.25
2023-02-23T10:04:39.649Z,35.10
2023-02-23T10:07:21.312Z,33.45
2023-02-23T10:10:22.043Z,34.03
2023-02-23T10:13:20.005Z,34.00
2023-02-23T10:15:57.795Z,33.50
2023-02-23T10:18:46.803Z,44.22
2023-02-23T10:21:21.809Z,33.88
2023-02-23T10:23:54.168Z,33.47
2023-02-23T10:26:25.123Z,32.67
2023-02-23T10:28:54.075Z,30.58
2023-02-23T10:31:43.831Z,30.85
2023-02-23T10:34:14.968Z,29.45
2023-02-23T10:36:46.248Z,27.85
2023-02-23T10:39:13.505Z,25.23
2023-02-23T10:41:41.963Z,31.00
2023-02-23T10:44:18.342Z,29.70
2023-02-23T10:46:47.801Z,34.92
2023-02-23T10:49:19.505Z,30.63
2023-02-23T10:51:46.430Z,34.13
2023-02-23T10:54:45.639Z,34.33
2023-02-23T10:57:20.469Z,28.85
2023-02-23T11:00:00.739Z,29.33
2023-02-23T11:02:30.805Z,25.75
2023-02-23T11:04:59.682Z,27.00
2023-02-23T11:07:29.523Z,26.75
2023-02-23T11:09:57.768Z,28.90
2023-02-23T11:12:37.594Z,25.75
2023-02-23T11:15:21.855Z,27.33
2023-02-23T11:17:55.995Z,25.98
2023-02-23T11:20:42.419Z,27.58
2023-02-23T11:23:14.671Z,26.45
2023-02-23T11:25:45.012Z,27.77
2023-02-23T11:28:41.433Z,24.80
2023-02-23T11:31:17.487Z,21.38
2023-02-23T11:33:45.888Z,22.88
2023-02-23T11:36:26.662Z,22.52
2023-02-23T11:39:07.485Z,21.23
2023-02-23T11:41:37.173Z,21.08
2023-02-23T11:44:06.188Z,21.17
2023-02-23T11:46:39.047Z,18.58
2023-02-23T11:49:17.821Z,18.67
2023-02-23T11:51:49.081Z,19.10
2023-02-23T11:54:25.832Z,25.40
2023-02-23T11:56:55.204Z,17.10
2023-02-23T11:59:32.744Z,14.88
2023-02-23T12:02:24.835Z,15.35
2023-02-23T12:05:17.532Z,16.65
2023-02-23T12:10:29.339Z,14.85
2023-02-23T12:13:34.765Z,12.50
2023-02-23T12:16:33.343Z,13.52
2023-02-23T12:19:06.516Z,12.80
2023-02-23T12:21:39.555Z,12.60
2023-02-23T12:24:24.940Z,13.80
2023-02-23T12:26:58.420Z,13.70
2023-02-23T12:29:37.742Z,13.70
2023-02-23T12:32:14.789Z,13.98
2023-02-23T12:34:53.640Z,11.63
2023-02-23T12:37:31.467Z,13.15
2023-02-23T12:40:07.233Z,12.25
2023-02-23T12:42:52.027Z,13.15
2023-02-23T12:45:24.805Z,13.68
2023-02-23T12:48:12.789Z,13.45
2023-02-23T12:50:45.669Z,13.82
2023-02-23T12:53:19.801Z,13.32
2023-02-23T12:56:22.980Z,12.50
2023-02-23T12:59:20.207Z,12.02
2023-02-23T13:02:00.776Z,12.73
2023-02-23T13:05:05.749Z,12.20
2023-02-23T13:07:50.865Z,12.18
2023-02-23T13:10:29.354Z,11.27
2023-02-23T13:13:11.705Z,10.40
2023-02-23T13:15:55.923Z,10.05
2023-02-23T13:18:29.730Z,8.52
2023-02-23T13:21:07.742Z,8.23
2023-02-23T13:23:44.697Z,6.80
2023-02-23T13:26:39.003Z,8.23
2023-02-23T13:29:14.688Z,9.15
2023-02-23T13:31:42.239Z,6.28
2023-02-23T13:34:18.560Z,6.32
2023-02-23T13:36:45.938Z,7.10
2023-02-23T13:39:33.642Z,5.93
2023-02-23T13:42:26.339Z,6.90
2023-02-23T13:47:25.435Z,6.53
2023-02-23T13:50:01.720Z,6.95
2023-02-23T13:52:38.126Z,5.53
2023-02-23T13:55:05.411Z,5.03
2023-02-23T13:57:32.901Z,5.85
2023-02-23T14:00:00.558Z,5.13
2023-02-23T14:02:31.029Z,4.82
2023-02-23T14:05:04.742Z,5.47
2023-02-23T14:07:33.055Z,6.35
2023-02-23T14:10:06.623Z,5.70
2023-02-23T14:12:42.460Z,30.35
2023-02-23T14:15:25.130Z,8.82
2023-02-23T14:18:03.415Z,8.30
2023-02-23T14:20:46.160Z,6.03
2023-02-23T14:23:28.689Z,5.40
2023-02-23T14:26:32.778Z,5.88
2023-02-23T14:29:25.467Z,5.50
2023-02-23T14:32:20.728Z,5.35
2023-02-23T14:34:59.149Z,6.25
2023-02-23T14:37:25.702Z,5.40
2023-02-23T14:40:01.178Z,7.05
2023-02-23T14:42:32.961Z,15.05
2023-02-23T14:45:07.674Z,10.27
2023-02-23T14:47:45.924Z,6.40
2023-02-23T14:50:24.075Z,7.60
2023-02-23T14:52:51.656Z,6.53
2023-02-23T14:55:29.068Z,10.13
2023-02-23T14:57:56.213Z,12.20
2023-02-23T15:00:33.891Z,7.68
2023-02-23T15:03:00.412Z,7.90
2023-02-23T15:05:45.829Z,9.02
2023-02-23T15:08:18.760Z,7.93
2023-02-23T15:10:47.327Z,6.93
2023-02-23T15:13:28.801Z,7.22
2023-02-23T15:15:57.504Z,41.80
2023-02-23T15:18:31.016Z,8.93
2023-02-23T15:20:57.595Z,9.52
2023-02-23T15:23:26.640Z,9.98
2023-02-23T15:25:53.311Z,9.65
2023-02-23T15:28:21.474Z,8.75
2023-02-23T15:30:49.497Z,8.90
2023-02-23T15:33:28.594Z,9.13
2023-02-23T15:36:07.020Z,9.65
2023-02-23T15:38:43.759Z,9.57
2023-02-23T15:41:37.281Z,9.00
2023-02-23T15:44:12.555Z,9.90
2023-02-23T15:46:41.975Z,9.88
2023-02-23T15:49:12.594Z,9.73
2023-02-23T15:51:51.604Z,9.07
2023-02-23T15:54:27.108Z,9.57
2023-02-23T15:57:01.925Z,8.25
2023-02-23T15:59:34.641Z,9.30
2023-02-23T16:02:03.269Z,8.73
2023-02-23T16:04:42.462Z,10.05
2023-02-23T16:07:20.638Z,10.13
2023-02-23T16:10:08.560Z,9.52
2023-02-23T16:12:39.102Z,9.50
2023-02-23T16:15:21.093Z,9.30
2023-02-23T16:17:53.172Z,9.38
2023-02-23T16:20:34.632Z,9.40
2023-02-23T16:23:02.861Z,8.80
2023-02-23T16:25:30.718Z,8.75
2023-02-23T16:28:18.390Z,8.80
2023-02-23T16:30:58.367Z,11.88
2023-02-23T16:33:28.487Z,8.68
2023-02-23T16:36:10.411Z,10.25
2023-02-23T16:38:41.671Z,8.75
2023-02-23T16:41:19.480Z,10.07
2023-02-23T16:43:48.862Z,10.82
2023-02-23T16:46:20.171Z,10.20
2023-02-23T16:48:47.159Z,11.48
2023-02-23T16:51:18.604Z,9.30
2023-02-23T16:53:46.294Z,10.17
2023-02-23T16:56:16.401Z,10.55
2023-02-23T16:58:46.801Z,9.63
2023-02-23T17:01:14.671Z,10.00
2023-02-23T17:03:52.469Z,14.77
2023-02-23T17:06:20.412Z,11.10
2023-02-23T17:08:56.212Z,14.05
2023-02-23T17:11:24.694Z,14.48
2023-02-23T17:13:52.294Z,10.60
2023-02-23T17:16:19.668Z,10.45
2023-02-23T17:18:46.552Z,10.32
2023-02-23T17:21:14.690Z,11.35
2023-02-23T17:23:51.392Z,10.02
2023-02-23T17:26:20.953Z,9.63
2023-02-23T17:28:47.847Z,9.88
2023-02-23T17:31:16.292Z,10.55
2023-02-23T17:33:44.189Z,10.93
2023-02-23T17:36:13.879Z,12.27
2023-02-23T17:38:44.823Z,10.88
2023-02-23T17:41:18.216Z,12.07
2023-02-23T17:43:45.092Z,12.15
2023-02-23T17:46:12.648Z,12.52
2023-02-23T17:48:40.756Z,12.65
2023-02-23T17:51:09.625Z,15.15
2023-02-23T17:53:36.642Z,14.15
2023-02-23T17:56:03.604Z,13.70
2023-02-23T17:58:30.635Z,22.45
2023-02-23T18:00:59.709Z,15.30
2023-02-23T18:03:31.861Z,15.75
2023-02-23T18:08:26.101Z,16.23
2023-02-23T18:10:54.410Z,14.68
2023-02-23T18:13:21.916Z,15.68
2023-02-23T18:15:53.775Z,16.50
2023-02-23T18:18:22.100Z,16.85
2023-02-23T18:20:51.031Z,16.05
2023-02-23T18:23:18.331Z,16.45
2023-02-23T18:25:44.862Z,18.23
2023-02-23T18:28:12.461Z,18.20
2023-02-23T18:30:41.109Z,16.77
2023-02-23T18:33:08.930Z,18.23
2023-02-23T18:35:41.036Z,16.85
2023-02-23T18:38:11.572Z,19.02
2023-02-23T18:40:39.023Z,18.63
2023-02-23T18:43:06.380Z,19.38
2023-02-23T18:45:33.767Z,18.58
2023-02-23T18:48:00.345Z,18.25
2023-02-23T18:50:27.253Z,18.52
2023-02-23T18:52:56.010Z,18.42
2023-02-23T18:55:23.567Z,17.95
2023-02-23T18:57:52.842Z,19.40
2023-02-23T19:00:20.240Z,24.15
2023-02-23T19:02:47.596Z,18.58
2023-02-23T19:05:18.169Z,19.13
2023-02-23T19:07:45.722Z,18.10
2023-02-23T19:10:14.957Z,17.38
2023-02-23T19:12:41.836Z,17.33
2023-02-23T19:15:09.143Z,18.40
2023-02-23T19:17:36.343Z,17.92
2023-02-23T19:20:07.900Z,18.25
2023-02-23T19:22:34.804Z,19.38
2023-02-23T19:25:01.314Z,16.17
2023-02-23T19:27:28.067Z,60.00
2023-02-23T19:29:54.555Z,16.10
2023-02-23T19:32:21.175Z,19.15
2023-02-23T19:34:48.009Z,17.40
2023-02-23T19:37:14.628Z,17.52
2023-02-23T19:39:41.267Z,17.48
2023-02-23T19:42:09.170Z,17.60
2023-02-23T19:44:35.899Z,16.90
2023-02-23T19:47:02.576Z,19.25
2023-02-23T19:49:29.187Z,18.40
2023-02-23T19:51:57.629Z,20.13
2023-02-23T19:54:26.271Z,19.80
2023-02-23T19:56:53.311Z,19.02
2023-02-23T19:59:19.953Z,19.63
2023-02-23T20:01:46.535Z,17.92
2023-02-23T20:04:13.154Z,18.55
2023-02-23T20:06:44.843Z,18.80
2023-02-23T20:09:11.795Z,18.83
2023-02-23T20:11:38.463Z,17.65
2023-02-23T20:14:07.446Z,16.42
2023-02-23T20:16:35.508Z,16.80
2023-02-23T20:19:03.647Z,18.33
2023-02-23T20:21:32.513Z,16.35
2023-02-23T20:24:01.450Z,17.45
2023-02-23T20:26:33.990Z,16.80
2023-02-23T20:29:01.449Z,17.52
2023-02-23T20:31:35.022Z,18.40
2023-02-23T20:34:06.801Z,15.88
2023-02-23T20:36:33.553Z,16.58
2023-02-23T20:39:00.216Z,17.02
2023-02-23T20:41:31.484Z,17.05
2023-02-23T20:44:01.010Z,17.55
2023-02-23T20:46:30.534Z,16.55
2023-02-23T20:48:59.358Z,15.48
2023-02-23T20:51:27.059Z,16.60
2023-02-23T20:53:53.873Z,16.13
2023-02-23T20:56:21.982Z,16.05
2023-02-23T20:58:48.634Z,16.73
2023-02-23T21:01:18.689Z,15.60
2023-02-23T21:03:46.440Z,16.17
2023-02-23T21:06:15.960Z,16.98
2023-02-23T21:08:42.621Z,16.50
2023-02-23T21:11:09.166Z,15.93
2023-02-23T21:13:36.515Z,16.17
2023-02-23T21:16:03.447Z,17.15
2023-02-23T21:18:31.170Z,16.55
2023-02-23T21:21:07.054Z,16.52
2023-02-23T21:23:33.603Z,16.20
2023-02-23T21:26:07.035Z,15.60
2023-02-23T21:28:33.952Z,14.88
2023-02-23T21:31:00.505Z,15.00
2023-02-23T21:33:27.162Z,15.95
2023-02-23T21:35:58.594Z,15.55
2023-02-23T21:38:25.702Z,16.40
2023-02-23T21:40:52.290Z,16.08
2023-02-23T21:43:19.093Z,15.90
2023-02-23T21:45:49.046Z,17.48
2023-02-23T21:48:15.894Z,18.80
2023-02-23T21:50:42.406Z,19.02
2023-02-23T21:53:09.679Z,17.85
2023-02-23T21:55:40.062Z,16.83
2023-02-23T21:58:07.351Z,18.33
2023-02-23T22:00:35.820Z,18.30
2023-02-23T22:03:03.270Z,18.98
2023-02-23T22:05:29.928Z,18.95
2023-02-23T22:07:56.585Z,20.08
2023-02-23T22:10:24.106Z,20.50
2023-02-23T22:12:56.668Z,21.40
2023-02-23T22:18:00.106Z,19.38
2023-02-23T22:20:26.657Z,18.83
2023-02-23T22:22:53.181Z,19.70
2023-02-23T22:25:20.269Z,19.60
2023-02-23T22:27:46.929Z,19.23
2023-02-23T22:30:14.909Z,18.65
2023-02-23T22:32:42.590Z,19.55
2023-02-23T22:35:10.966Z,19.17
2023-02-23T22:37:38.742Z,18.63
2023-02-23T22:40:13.346Z,18.80
2023-02-23T22:42:39.903Z,18.88
2023-02-23T22:45:07.116Z,18.63
2023-02-23T22:47:34.880Z,19.10
2023-02-23T22:50:01.519Z,18.33
2023-02-23T22:52:29.996Z,17.85
2023-02-23T22:54:56.608Z,19.05
2023-02-23T22:57:23.487Z,18.02
2023-02-23T23:00:00.501Z,17.92
2023-02-23T23:02:32.155Z,18.17
2023-02-23T23:05:01.828Z,19.25
2023-02-23T23:07:30.868Z,19.52
2023-02-23T23:09:58.551Z,19.08
2023-02-23T23:12:27.944Z,18.05
2023-02-23T23:15:01.211Z,20.30
2023-02-23T23:17:31.854Z,17.63
2023-02-23T23:20:00.231Z,18.80
2023-02-23T23:22:27.509Z,18.65
2023-02-23T23:24:54.089Z,18.63
2023-02-23T23:27:21.441Z,22.42
2023-02-23T23:29:48.720Z,19.42
2023-02-23T23:32:18.474Z,18.13
2023-02-23T23:34:48.158Z,19.27
2023-02-23T23:37:19.732Z,18.45
2023-02-23T23:39:46.526Z,19.27
2023-02-23T23:42:13.578Z,18.75
2023-02-23T23:44:40.170Z,20.42
2023-02-23T23:47:06.961Z,19.42
2023-02-23T23:49:38.340Z,18.02
2023-02-23T23:52:05.454Z,17.42
2023-02-23T23:54:42.279Z,19.38
2023-02-23T23:57:11.301Z,17.85
2023-02-23T23:59:45.593Z,17.95
